createdAt,value
2023-01-09T00:01:42.253Z,4.93
2023-01-09T00:04:09.773Z,5.23
2023-01-09T00:06:37.256Z,4.70
2023-01-09T00:09:04.439Z,4.70
2023-01-09T00:11:31.692Z,5.50
2023-01-09T00:13:59.042Z,5.17
2023-01-09T00:16:26.468Z,5.63
2023-01-09T00:18:53.746Z,5.30
2023-01-09T00:21:21.139Z,5.17
2023-01-09T00:23:48.188Z,5.80
2023-01-09T00:26:20.404Z,5.10
2023-01-09T00:28:51.076Z,6.03
2023-01-09T00:31:18.957Z,5.20
2023-01-09T00:34:01.168Z,6.40
2023-01-09T00:36:30.064Z,5.60
2023-01-09T00:38:57.507Z,5.80
2023-01-09T00:41:37.761Z,5.30
2023-01-09T00:44:17.934Z,6.57
2023-01-09T00:46:54.242Z,5.83
2023-01-09T00:49:22.344Z,5.30
2023-01-09T00:51:50.052Z,5.90
2023-01-09T00:54:20.463Z,5.83
2023-01-09T00:56:48.616Z,5.93
2023-01-09T00:59:15.779Z,6.50
2023-01-09T01:01:43.084Z,6.50
2023-01-09T01:04:30.470Z,5.83
2023-01-09T01:07:16.495Z,6.10
2023-01-09T01:09:43.564Z,6.50
2023-01-09T01:12:10.580Z,7.10
2023-01-09T01:14:39.204Z,6.93
2023-01-09T01:17:07.922Z,7.50
2023-01-09T01:19:37.401Z,6.60
2023-01-09T01:22:04.892Z,5.97
2023-01-09T01:24:32.343Z,6.77
2023-01-09T01:26:59.276Z,6.63
2023-01-09T01:29:27.820Z,6.57
2023-01-09T01:31:55.255Z,7.43
2023-01-09T01:34:22.353Z,7.20
2023-01-09T01:36:49.351Z,6.93
2023-01-09T01:39:17.973Z,6.30
2023-01-09T01:41:45.203Z,7.63
2023-01-09T01:45:20.238Z,7.43
2023-01-09T01:48:04.379Z,7.80
2023-01-09T01:51:03.151Z,7.03
2023-01-09T01:53:48.792Z,8.10
2023-01-09T01:56:41.896Z,7.37
2023-01-09T01:59:22.180Z,7.50
2023-01-09T02:02:01.618Z,8.10
2023-01-09T02:04:33.998Z,8.10
2023-01-09T02:07:08.585Z,8.93
2023-01-09T02:09:38.633Z,7.93
2023-01-09T02:12:25.063Z,8.03
2023-01-09T02:15:09.430Z,7.93
2023-01-09T02:18:40.360Z,7.97
2023-01-09T02:21:22.755Z,8.93
2023-01-09T02:24:40.451Z,8.13
2023-01-09T02:28:33.326Z,9.00
2023-01-09T02:31:20.416Z,8.07
2023-01-09T02:34:08.516Z,8.63
2023-01-09T02:37:12.760Z,8.70
2023-01-09T02:40:46.051Z,9.00
2023-01-09T02:43:14.705Z,9.20
2023-01-09T02:45:41.764Z,9.37
2023-01-09T02:48:12.694Z,8.83
2023-01-09T02:51:07.959Z,8.90
2023-01-09T02:54:41.285Z,9.70
2023-01-09T02:58:15.667Z,9.73
2023-01-09T03:01:39.091Z,10.00
2023-01-09T03:04:38.354Z,9.20
2023-01-09T03:07:29.955Z,9.70
2023-01-09T03:10:37.986Z,9.97
2023-01-09T03:13:14.224Z,9.50
2023-01-09T03:15:49.725Z,10.70
2023-01-09T03:18:25.669Z,10.35
2023-01-09T03:20:55.577Z,8.40
2023-01-09T03:23:22.917Z,10.30
2023-01-09T03:25:50.027Z,9.90
2023-01-09T03:28:29.277Z,10.30
2023-01-09T03:30:56.500Z,9.17
2023-01-09T03:33:23.523Z,10.33
2023-01-09T03:35:50.572Z,9.80
2023-01-09T03:38:17.491Z,9.67
2023-01-09T03:40:44.542Z,9.70
2023-01-09T03:43:11.537Z,9.57
2023-01-09T03:45:38.559Z,10.00
2023-01-09T03:48:06.385Z,9.80
2023-01-09T03:50:33.309Z,10.73
2023-01-09T03:53:00.386Z,10.33
2023-01-09T03:55:27.592Z,9.43
2023-01-09T03:57:54.563Z,9.40
2023-01-09T04:00:22.505Z,9.87
2023-01-09T04:02:49.626Z,10.20
2023-01-09T04:05:17.140Z,10.40
2023-01-09T04:07:44.141Z,10.50
2023-01-09T04:10:12.459Z,9.63
2023-01-09T04:12:39.944Z,10.00
2023-01-09T04:15:07.919Z,9.63
2023-01-09T04:17:34.870Z,10.07
2023-01-09T04:20:01.890Z,10.63
2023-01-09T04:22:28.901Z,11.43
2023-01-09T04:24:55.964Z,9.77
2023-01-09T04:27:23.724Z,9.30
2023-01-09T04:29:50.761Z,10.30
2023-01-09T04:32:17.757Z,10.53
2023-01-09T04:34:44.823Z,10.07
2023-01-09T04:37:12.210Z,10.30
2023-01-09T04:39:40.093Z,9.77
2023-01-09T04:42:06.994Z,10.27
2023-01-09T04:44:34.091Z,10.10
2023-01-09T04:47:01.342Z,9.57
2023-01-09T04:49:28.445Z,10.37
2023-01-09T04:51:55.667Z,10.13
2023-01-09T04:54:23.072Z,10.70
2023-01-09T04:56:51.178Z,11.70
2023-01-09T04:59:18.075Z,10.00
2023-01-09T05:01:45.192Z,10.10
2023-01-09T05:04:13.079Z,11.63
2023-01-09T05:06:40.318Z,10.87
2023-01-09T05:09:07.374Z,10.07
2023-01-09T05:11:34.406Z,11.23
2023-01-09T05:14:01.439Z,10.87
2023-01-09T05:16:28.477Z,10.80
2023-01-09T05:18:57.203Z,10.73
2023-01-09T05:21:24.742Z,11.23
2023-01-09T05:23:52.450Z,11.43
2023-01-09T05:26:26.048Z,10.63
2023-01-09T05:28:56.457Z,12.00
2023-01-09T05:31:27.034Z,11.57
2023-01-09T05:33:54.922Z,10.47
2023-01-09T05:36:21.825Z,11.27
2023-01-09T05:38:51.366Z,12.00
2023-01-09T05:41:18.256Z,10.23
2023-01-09T05:43:45.274Z,10.00
2023-01-09T05:46:12.425Z,10.70
2023-01-09T05:48:39.561Z,10.67
2023-01-09T05:51:06.467Z,10.30
2023-01-09T05:53:33.444Z,10.03
2023-01-09T05:56:00.444Z,10.93
2023-01-09T05:58:27.592Z,10.43
2023-01-09T06:00:55.040Z,10.67
2023-01-09T06:03:22.052Z,11.23
2023-01-09T06:05:49.213Z,12.10
2023-01-09T06:08:16.142Z,11.67
2023-01-09T06:10:43.491Z,11.90
2023-01-09T06:13:12.951Z,12.77
2023-01-09T06:15:40.047Z,12.50
2023-01-09T06:18:12.349Z,13.30
2023-01-09T06:20:39.596Z,11.47
2023-01-09T06:23:06.623Z,13.10
2023-01-09T06:25:33.740Z,13.40
2023-01-09T06:28:00.674Z,12.63
2023-01-09T06:30:27.712Z,12.80
2023-01-09T06:32:57.626Z,12.30
2023-01-09T06:35:24.832Z,13.10
2023-01-09T06:37:51.845Z,13.03
2023-01-09T06:40:21.244Z,12.90
2023-01-09T06:42:50.176Z,13.50
2023-01-09T06:45:18.011Z,12.20
2023-01-09T06:47:45.003Z,14.60
2023-01-09T06:50:12.715Z,12.67
2023-01-09T06:52:43.169Z,13.00
2023-01-09T06:55:10.431Z,14.60
2023-01-09T06:57:40.409Z,12.80
2023-01-09T07:00:08.710Z,14.00
2023-01-09T07:02:35.704Z,14.63
2023-01-09T07:05:03.252Z,13.27
2023-01-09T07:07:30.327Z,14.07
2023-01-09T07:09:57.239Z,13.87
2023-01-09T07:12:24.598Z,12.40
2023-01-09T07:14:51.545Z,13.10
2023-01-09T07:17:18.501Z,13.43
2023-01-09T07:19:45.464Z,12.90
2023-01-09T07:22:12.949Z,14.77
2023-01-09T07:24:42.528Z,13.97
2023-01-09T07:27:09.555Z,13.67
2023-01-09T07:29:36.802Z,13.47
2023-01-09T07:32:04.606Z,14.47
2023-01-09T07:34:31.720Z,13.37
2023-01-09T07:36:58.838Z,14.30
2023-01-09T07:39:25.809Z,13.33
2023-01-09T07:41:53.017Z,12.70
2023-01-09T07:44:20.017Z,12.87
2023-01-09T07:46:47.034Z,11.67
2023-01-09T07:49:14.133Z,13.83
2023-01-09T07:51:43.171Z,13.47
2023-01-09T07:54:13.005Z,14.00
2023-01-09T07:56:40.978Z,13.20
2023-01-09T07:59:08.120Z,14.10
2023-01-09T08:01:35.566Z,12.73
2023-01-09T08:04:02.774Z,12.23
2023-01-09T08:06:31.438Z,13.20
2023-01-09T08:09:00.270Z,13.73
2023-01-09T08:11:27.423Z,13.73
2023-01-09T08:13:54.604Z,14.37
2023-01-09T08:16:21.833Z,12.57
2023-01-09T08:18:48.900Z,13.80
2023-01-09T08:21:18.776Z,12.00
2023-01-09T08:23:48.577Z,12.37
2023-01-09T08:26:15.610Z,13.50
2023-01-09T08:28:42.741Z,13.37
2023-01-09T08:31:09.803Z,13.97
2023-01-09T08:33:37.101Z,12.63
2023-01-09T08:36:05.133Z,12.07
2023-01-09T08:38:32.291Z,14.10
2023-01-09T08:40:59.275Z,13.50
2023-01-09T08:43:45.040Z,13.23
2023-01-09T08:46:47.671Z,12.93
2023-01-09T08:49:14.667Z,12.70
2023-01-09T08:51:41.732Z,13.13
2023-01-09T08:54:08.652Z,12.27
2023-01-09T08:56:35.670Z,14.13
2023-01-09T08:59:02.724Z,14.27
2023-01-09T09:01:29.812Z,18.97
2023-01-09T09:03:56.765Z,36.53
2023-01-09T09:06:23.803Z,13.00
2023-01-09T09:08:50.737Z,13.90
2023-01-09T09:11:17.778Z,14.80
2023-01-09T09:13:44.775Z,14.33
2023-01-09T09:16:11.772Z,12.10
2023-01-09T09:18:38.785Z,11.53
2023-01-09T09:21:05.917Z,12.50
2023-01-09T09:23:32.930Z,12.43
2023-01-09T09:25:59.949Z,12.97
2023-01-09T09:28:27.136Z,15.20
2023-01-09T09:30:54.260Z,13.87
2023-01-09T09:33:21.298Z,12.33
2023-01-09T09:35:48.208Z,11.70
2023-01-09T09:38:15.832Z,11.57
2023-01-09T09:41:53.999Z,11.60
2023-01-09T09:44:55.377Z,10.13
2023-01-09T09:47:59.086Z,10.57
2023-01-09T09:50:58.003Z,10.60
2023-01-09T09:53:43.522Z,10.50
2023-01-09T09:56:21.539Z,10.00
2023-01-09T09:59:02.158Z,9.80
2023-01-09T10:02:02.014Z,9.30
2023-01-09T10:04:37.302Z,9.17
2023-01-09T10:07:21.947Z,9.80
2023-01-09T10:10:05.002Z,9.73
2023-01-09T10:12:52.425Z,8.60
2023-01-09T10:15:40.147Z,8.40
2023-01-09T10:19:02.721Z,8.83
2023-01-09T10:22:29.456Z,8.80
2023-01-09T10:25:26.571Z,8.37
2023-01-09T10:28:31.313Z,9.20
2023-01-09T10:31:19.462Z,7.90
2023-01-09T10:34:48.605Z,9.00
2023-01-09T10:37:33.937Z,7.93
2023-01-09T10:40:20.196Z,8.70
2023-01-09T10:43:06.281Z,7.07
2023-01-09T10:45:54.730Z,5.83
2023-01-09T10:48:50.491Z,6.10
2023-01-09T10:51:55.725Z,5.97
2023-01-09T10:54:24.138Z,6.53
2023-01-09T10:57:35.981Z,6.00
2023-01-09T11:00:05.400Z,5.50
2023-01-09T11:02:36.081Z,6.27
2023-01-09T11:05:03.166Z,4.90
2023-01-09T11:07:40.940Z,5.70
2023-01-09T11:10:13.231Z,5.23
2023-01-09T11:12:40.885Z,5.27
2023-01-09T11:15:20.229Z,5.90
2023-01-09T11:17:50.645Z,30.10
2023-01-09T11:20:22.259Z,62.43
2023-01-09T11:22:58.676Z,5.10
2023-01-09T11:25:29.002Z,4.23
2023-01-09T11:28:01.986Z,4.10
2023-01-09T11:30:36.608Z,4.27
2023-01-09T11:33:24.625Z,4.00
2023-01-09T11:36:12.660Z,3.83
2023-01-09T11:39:01.006Z,3.80
2023-01-09T11:41:36.482Z,3.50
2023-01-09T11:44:07.979Z,4.00
2023-01-09T11:46:44.690Z,4.17
2023-01-09T11:49:18.148Z,3.90
2023-01-09T11:51:46.071Z,3.40
2023-01-09T11:54:35.125Z,3.30
2023-01-09T11:57:02.452Z,3.43
2023-01-09T11:59:31.741Z,3.50
2023-01-09T12:02:56.591Z,2.87
2023-01-09T12:06:10.993Z,2.83
2023-01-09T12:09:43.656Z,2.27
2023-01-09T12:13:12.758Z,3.40
2023-01-09T12:19:39.368Z,2.33
2023-01-09T12:22:45.559Z,2.70
2023-01-09T12:25:37.103Z,2.47
2023-01-09T12:29:19.310Z,2.63
2023-01-09T12:32:39.380Z,2.53
2023-01-09T12:40:21.695Z,2.23
2023-01-09T12:43:26.809Z,2.77
2023-01-09T12:46:54.099Z,2.90
2023-01-09T12:49:42.525Z,2.10
2023-01-09T12:52:45.305Z,2.10
2023-01-09T12:55:26.992Z,2.57
2023-01-09T14:10:21.657Z,2.30
2023-01-09T14:24:17.366Z,2.10
2023-01-09T14:28:30.243Z,1.90
2023-01-09T14:32:29.871Z,1.83
2023-01-09T14:37:02.133Z,1.57
2023-01-09T15:05:48.825Z,5.20
2023-01-09T15:08:33.843Z,9.30
2023-01-09T15:11:12.177Z,2.30
2023-01-09T15:14:22.220Z,2.20
2023-01-09T15:21:44.950Z,2.13
2023-01-09T15:24:41.606Z,2.20
2023-01-09T15:27:25.372Z,2.53
2023-01-09T15:29:54.844Z,1.67
2023-01-09T15:32:44.612Z,2.73
2023-01-09T15:35:17.257Z,2.03
2023-01-09T15:38:46.389Z,1.63
2023-01-09T15:41:47.278Z,1.87
2023-01-09T15:44:30.271Z,2.10
2023-01-09T15:47:06.073Z,2.60
2023-01-09T15:49:35.326Z,1.73
2023-01-09T15:52:07.257Z,2.20
2023-01-09T15:54:41.106Z,2.07
2023-01-09T16:02:56.420Z,2.30
2023-01-09T16:06:04.302Z,3.17
2023-01-09T16:12:39.105Z,3.60
2023-01-09T16:15:27.020Z,3.23
2023-01-09T16:18:15.945Z,3.10
2023-01-09T16:20:57.088Z,3.00
2023-01-09T16:23:49.480Z,3.50
2023-01-09T16:26:32.722Z,2.37
2023-01-09T16:32:48.706Z,2.73
2023-01-09T16:35:38.864Z,2.60
2023-01-09T16:38:16.561Z,2.70
2023-01-09T16:41:42.002Z,1.97
2023-01-09T16:44:24.287Z,3.13
2023-01-09T16:47:26.452Z,2.60
2023-01-09T16:49:59.294Z,2.90
2023-01-09T16:52:38.821Z,3.07
2023-01-09T16:55:11.042Z,3.73
2023-01-09T16:57:48.565Z,2.57
2023-01-09T17:03:37.744Z,2.27
2023-01-09T17:06:32.800Z,2.37
2023-01-09T17:09:40.165Z,2.03
2023-01-09T17:12:53.633Z,2.53
2023-01-09T17:16:25.429Z,5.50
2023-01-09T17:21:45.666Z,2.43
2023-01-09T17:25:14.346Z,4.17
2023-01-09T17:28:37.275Z,4.37
2023-01-09T17:31:13.435Z,3.10
2023-01-09T17:34:09.807Z,4.90
2023-01-09T17:54:01.224Z,2.80
2023-01-09T17:56:34.873Z,2.83
2023-01-09T17:59:01.968Z,2.30
2023-01-09T18:01:29.032Z,2.13
2023-01-09T18:03:56.031Z,1.93
2023-01-09T18:06:24.926Z,2.13
2023-01-09T18:08:51.920Z,2.53
2023-01-09T18:11:22.003Z,2.30
2023-01-09T18:13:54.032Z,2.00
2023-01-09T18:16:28.379Z,2.43
2023-01-09T18:18:58.667Z,4.53
2023-01-09T18:21:29.559Z,4.90
2023-01-09T18:24:00.569Z,2.30
2023-01-09T18:26:27.831Z,2.50
2023-01-09T18:29:00.928Z,3.57
2023-01-09T18:31:30.377Z,2.30
2023-01-09T18:34:05.378Z,2.50
2023-01-09T18:36:32.563Z,2.50
2023-01-09T18:39:03.940Z,2.40
2023-01-09T18:41:32.438Z,2.50
2023-01-09T18:44:01.777Z,2.00
2023-01-09T18:46:32.748Z,8.30
2023-01-09T18:49:05.528Z,2.33
2023-01-09T18:51:36.587Z,2.10
2023-01-09T18:54:11.567Z,1.90
2023-01-09T18:56:39.754Z,1.60
2023-01-09T18:59:10.737Z,1.50
2023-01-09T19:01:40.698Z,1.77
2023-01-09T19:04:07.815Z,2.53
2023-01-09T19:06:38.075Z,1.40
2023-01-09T19:09:16.459Z,1.80
2023-01-09T19:11:47.136Z,1.53
2023-01-09T19:14:19.731Z,1.90
2023-01-09T19:17:07.277Z,2.40
2023-01-09T19:23:09.849Z,2.30
2023-01-09T19:25:36.985Z,1.60
2023-01-09T19:28:04.553Z,2.40
2023-01-09T19:30:39.032Z,2.37
2023-01-09T19:33:06.664Z,5.03
2023-01-09T19:35:34.825Z,2.33
2023-01-09T19:38:01.998Z,1.63
2023-01-09T19:40:29.226Z,2.13
2023-01-09T19:42:58.393Z,2.20
2023-01-09T19:45:25.665Z,1.60
2023-01-09T19:47:52.812Z,2.37
2023-01-09T19:50:20.069Z,1.63
2023-01-09T19:52:47.320Z,1.20
2023-01-09T19:55:14.881Z,1.80
2023-01-09T19:57:44.093Z,1.33
2023-01-09T20:00:14.431Z,1.40
2023-01-09T20:02:42.772Z,1.80
2023-01-09T20:05:10.306Z,1.40
2023-01-09T20:07:37.470Z,1.63
2023-01-09T20:10:05.222Z,1.33
2023-01-09T20:12:33.085Z,1.53
2023-01-09T20:15:00.380Z,1.40
2023-01-09T20:17:27.740Z,1.40
2023-01-09T20:19:54.856Z,1.30
2023-01-09T20:22:24.024Z,1.60
2023-01-09T20:24:50.970Z,1.73
2023-01-09T20:27:17.901Z,1.43
2023-01-09T20:29:44.853Z,1.60
2023-01-09T20:32:11.889Z,1.60
2023-01-09T20:34:38.945Z,1.30
2023-01-09T20:37:06.048Z,1.37
2023-01-09T20:39:33.033Z,1.60
2023-01-09T20:42:00.550Z,1.43
2023-01-09T20:44:27.496Z,1.40
2023-01-09T20:46:54.598Z,1.43
2023-01-09T20:49:21.773Z,1.60
2023-01-09T20:51:52.480Z,1.40
2023-01-09T20:54:21.848Z,1.80
2023-01-09T20:56:49.672Z,1.27
2023-01-09T20:59:22.340Z,1.30
2023-01-09T21:01:50.999Z,1.47
2023-01-09T21:04:18.339Z,1.60
2023-01-09T21:06:45.761Z,1.43
2023-01-09T21:09:13.143Z,1.30
2023-01-09T21:11:40.130Z,1.20
2023-01-09T21:14:07.127Z,1.10
2023-01-09T21:16:34.127Z,1.30
2023-01-09T21:19:01.085Z,1.30
2023-01-09T21:21:29.422Z,1.40
2023-01-09T21:24:00.924Z,1.30
2023-01-09T21:26:30.714Z,1.30
2023-01-09T21:29:08.322Z,1.30
2023-01-09T21:31:35.790Z,1.30
2023-01-09T21:34:07.405Z,1.60
2023-01-09T21:36:36.284Z,1.20
2023-01-09T21:39:08.435Z,1.67
2023-01-09T21:41:56.167Z,1.50
2023-01-09T21:44:46.184Z,1.27
2023-01-09T21:47:13.715Z,1.20
2023-01-09T21:49:44.217Z,1.27
2023-01-09T21:52:19.066Z,1.30
2023-01-09T21:54:54.621Z,1.50
2023-01-09T21:57:21.715Z,1.30
2023-01-09T21:59:51.496Z,1.43
2023-01-09T22:02:27.350Z,1.27
2023-01-09T22:04:59.915Z,1.50
2023-01-09T22:07:27.308Z,2.00
2023-01-09T22:09:54.426Z,1.20
2023-01-09T22:12:27.119Z,1.70
2023-01-09T22:15:00.138Z,1.40
2023-01-09T22:17:29.720Z,1.50
2023-01-09T22:20:00.302Z,1.30
2023-01-09T22:22:27.296Z,1.30
2023-01-09T22:24:59.203Z,1.50
2023-01-09T22:27:35.460Z,1.20
2023-01-09T22:30:11.671Z,1.43
2023-01-09T22:32:40.826Z,1.83
2023-01-09T22:35:09.054Z,1.90
2023-01-09T22:37:53.033Z,2.00
2023-01-09T22:40:21.273Z,2.13
2023-01-09T22:42:55.368Z,1.40
2023-01-09T22:45:25.595Z,1.47
2023-01-09T22:48:06.687Z,2.10
2023-01-09T22:50:42.673Z,2.10
2023-01-09T22:53:09.710Z,2.00
2023-01-09T22:55:43.017Z,1.47
2023-01-09T22:58:17.929Z,1.57
2023-01-09T23:00:45.377Z,1.70
2023-01-09T23:03:15.314Z,1.73
2023-01-09T23:05:42.814Z,2.40
2023-01-09T23:08:13.244Z,1.80
2023-01-09T23:10:43.557Z,2.17
2023-01-09T23:13:10.950Z,1.50
2023-01-09T23:15:38.031Z,2.23
2023-01-09T23:18:11.756Z,1.80
2023-01-09T23:20:38.923Z,1.60
2023-01-09T23:23:07.034Z,1.53
2023-01-09T23:25:37.007Z,1.70
2023-01-09T23:28:06.780Z,1.63
2023-01-09T23:30:33.757Z,1.67
2023-01-09T23:33:01.021Z,1.80
2023-01-09T23:35:27.883Z,1.57
2023-01-09T23:37:55.055Z,1.70
2023-01-09T23:40:22.269Z,1.70
2023-01-09T23:43:07.943Z,2.10
2023-01-09T23:45:37.635Z,1.50
2023-01-09T23:48:07.633Z,1.83
2023-01-09T23:50:36.314Z,2.13
2023-01-09T23:53:05.081Z,1.70
